createdAt,value
2017-09-02T00:02:10.177Z,14.70
2017-09-02T00:04:37.965Z,14.70
2017-09-02T00:07:05.458Z,14.70
2017-09-02T00:09:32.948Z,14.80
2017-09-02T00:12:00.443Z,14.80
2017-09-02T00:14:27.918Z,14.90
2017-09-02T00:16:55.437Z,14.90
2017-09-02T00:19:22.984Z,14.70
2017-09-02T00:21:50.458Z,14.60
2017-09-02T00:24:17.952Z,14.70
2017-09-02T00:26:45.438Z,14.60
2017-09-02T00:29:12.928Z,14.50
2017-09-02T00:31:40.415Z,14.50
2017-09-02T00:34:07.934Z,14.30
2017-09-02T00:36:35.428Z,14.20
2017-09-02T00:39:02.946Z,14.00
2017-09-02T00:41:30.434Z,14.00
2017-09-02T00:43:57.926Z,14.10
2017-09-02T00:46:25.407Z,14.10
2017-09-02T00:48:52.917Z,14.20
2017-09-02T00:51:20.390Z,14.20
2017-09-02T00:53:47.868Z,14.30
2017-09-02T00:56:15.374Z,14.40
2017-09-02T00:58:42.850Z,14.50
2017-09-02T01:01:10.349Z,14.50
2017-09-02T01:03:37.822Z,14.50
2017-09-02T01:06:19.016Z,14.10
2017-09-02T01:08:46.527Z,14.00
2017-09-02T01:11:14.027Z,14.10
2017-09-02T01:13:41.503Z,14.30
2017-09-02T01:16:09.017Z,14.40
2017-09-02T01:18:36.596Z,14.40
2017-09-02T01:21:04.112Z,14.50
2017-09-02T01:23:31.616Z,14.60
2017-09-02T01:25:59.860Z,14.60
2017-09-02T01:28:27.363Z,14.60
2017-09-02T01:30:54.840Z,14.50
2017-09-02T01:33:22.330Z,14.60
2017-09-02T01:35:49.808Z,14.60
2017-09-02T01:38:17.301Z,14.50
2017-09-02T01:40:44.810Z,14.60
2017-09-02T01:43:12.301Z,14.60
2017-09-02T01:45:39.798Z,14.60
2017-09-02T01:48:07.299Z,14.50
2017-09-02T01:50:34.789Z,14.50
2017-09-02T01:53:02.275Z,14.60
2017-09-02T01:55:29.753Z,14.60
2017-09-02T01:57:57.262Z,14.60
2017-09-02T02:00:24.757Z,14.60
2017-09-02T02:02:52.265Z,14.40
2017-09-02T02:05:19.859Z,14.20
2017-09-02T02:07:47.359Z,14.20
2017-09-02T02:10:14.863Z,14.20
2017-09-02T02:12:42.346Z,14.20
2017-09-02T02:15:09.842Z,14.30
2017-09-02T02:17:37.330Z,14.20
2017-09-02T02:20:04.834Z,14.20
2017-09-02T02:22:32.314Z,14.40
2017-09-02T02:24:59.924Z,14.30
2017-09-02T02:27:27.420Z,14.40
2017-09-02T02:29:54.904Z,14.40
2017-09-02T02:32:22.396Z,14.40
2017-09-02T02:34:49.907Z,14.30
2017-09-02T02:37:17.399Z,14.30
2017-09-02T02:39:44.895Z,14.20
2017-09-02T02:42:12.379Z,14.10
2017-09-02T02:44:39.869Z,13.90
2017-09-02T02:47:07.378Z,13.80
2017-09-02T02:49:35.757Z,13.90
2017-09-02T02:52:03.271Z,13.70
2017-09-02T02:54:30.780Z,13.50
2017-09-02T02:56:58.944Z,13.70
2017-09-02T02:59:26.423Z,13.70
2017-09-02T03:01:53.926Z,13.70
2017-09-02T03:04:21.407Z,13.80
2017-09-02T03:06:48.915Z,13.90
2017-09-02T03:09:16.720Z,13.90
2017-09-02T03:11:44.214Z,14.00
2017-09-02T03:14:11.702Z,14.00
2017-09-02T03:16:39.967Z,14.00
2017-09-02T03:19:07.466Z,14.00
2017-09-02T03:21:34.954Z,14.20
2017-09-02T03:24:02.438Z,14.20
2017-09-02T03:26:29.971Z,14.20
2017-09-02T03:28:57.439Z,14.20
2017-09-02T03:31:24.924Z,14.20
2017-09-02T03:33:52.408Z,14.20
2017-09-02T03:36:19.884Z,14.10
2017-09-02T03:38:47.388Z,14.20
2017-09-02T03:41:14.871Z,14.10
2017-09-02T03:43:42.367Z,14.10
2017-09-02T03:46:09.850Z,14.10
2017-09-02T03:48:37.359Z,14.10
2017-09-02T03:51:04.832Z,14.10
2017-09-02T03:53:32.326Z,14.10
2017-09-02T03:55:59.798Z,14.20
2017-09-02T03:58:27.298Z,14.20
2017-09-02T04:00:54.809Z,14.20
2017-09-02T04:03:22.308Z,14.10
2017-09-02T04:05:49.787Z,14.10
2017-09-02T04:08:17.294Z,14.00
2017-09-02T04:10:45.557Z,14.00
2017-09-02T04:13:13.071Z,14.00
2017-09-02T04:15:40.580Z,14.10
2017-09-02T04:18:08.079Z,14.10
2017-09-02T04:20:35.576Z,14.20
2017-09-02T04:23:03.074Z,14.10
2017-09-02T04:25:30.562Z,13.70
2017-09-02T04:27:58.045Z,13.60
2017-09-02T04:30:25.558Z,13.40
2017-09-02T04:32:53.034Z,13.30
2017-09-02T04:35:20.534Z,13.30
2017-09-02T04:37:48.034Z,13.40
2017-09-02T04:40:15.524Z,13.50
2017-09-02T04:42:43.014Z,13.70
2017-09-02T04:45:10.509Z,13.70
2017-09-02T04:47:37.982Z,13.80
2017-09-02T04:50:05.506Z,13.90
2017-09-02T04:52:32.998Z,13.90
2017-09-02T04:55:00.477Z,13.90
2017-09-02T04:57:27.966Z,13.90
2017-09-02T04:59:55.451Z,14.00
2017-09-02T05:02:22.936Z,13.90
2017-09-02T05:04:51.188Z,14.00
2017-09-02T05:07:18.742Z,14.00
2017-09-02T05:09:46.227Z,14.10
2017-09-02T05:12:13.736Z,14.00
2017-09-02T05:14:42.004Z,13.50
2017-09-02T05:17:09.504Z,13.50
2017-09-02T05:19:36.998Z,13.70
2017-09-02T05:22:04.498Z,13.80
2017-09-02T05:24:31.974Z,13.80
2017-09-02T05:26:59.482Z,13.90
2017-09-02T05:29:26.975Z,13.90
2017-09-02T05:31:54.460Z,13.70
2017-09-02T05:34:21.982Z,13.60
2017-09-02T05:36:49.469Z,13.60
2017-09-02T05:39:16.984Z,13.50
2017-09-02T05:41:44.462Z,13.50
2017-09-02T05:44:12.744Z,13.40
2017-09-02T05:46:40.229Z,13.40
2017-09-02T05:49:07.740Z,13.60
2017-09-02T05:51:35.220Z,13.70
2017-09-02T05:54:02.714Z,13.90
2017-09-02T05:56:30.190Z,14.00
2017-09-02T05:58:57.688Z,14.00
2017-09-02T06:01:25.175Z,14.10
2017-09-02T06:03:52.667Z,14.10
2017-09-02T06:06:20.148Z,14.20
2017-09-02T06:08:47.664Z,14.20
2017-09-02T06:11:15.171Z,14.20
2017-09-02T06:13:43.431Z,14.40
2017-09-02T06:16:10.914Z,14.40
2017-09-02T06:18:39.186Z,14.50
2017-09-02T06:21:07.436Z,14.50
2017-09-02T06:23:34.919Z,14.50
2017-09-02T06:26:03.196Z,14.50
2017-09-02T06:28:31.439Z,14.50
2017-09-02T06:30:58.941Z,14.50
2017-09-02T06:33:26.435Z,14.50
2017-09-02T06:35:53.962Z,14.60
2017-09-02T06:38:21.454Z,14.70
2017-09-02T06:40:48.951Z,14.70
2017-09-02T06:43:16.453Z,14.80
2017-09-02T06:45:43.954Z,14.90
2017-09-02T06:48:11.445Z,14.80
2017-09-02T06:50:38.934Z,14.80
2017-09-02T06:53:06.441Z,14.90
2017-09-02T06:55:34.690Z,15.00
2017-09-02T06:58:02.185Z,15.00
2017-09-02T07:00:29.677Z,14.80
2017-09-02T07:02:57.178Z,14.90
2017-09-02T07:05:24.674Z,15.10
2017-09-02T07:07:52.191Z,15.10
2017-09-02T07:10:19.674Z,15.00
2017-09-02T07:12:47.172Z,15.10
2017-09-02T07:15:14.675Z,15.20
2017-09-02T07:17:42.158Z,15.20
2017-09-02T07:20:09.657Z,15.20
2017-09-02T07:22:37.139Z,14.90
2017-09-02T07:25:04.639Z,15.10
2017-09-02T07:27:32.149Z,15.10
2017-09-02T07:29:59.648Z,15.00
2017-09-02T07:32:27.126Z,15.00
2017-09-02T07:34:54.619Z,15.10
2017-09-02T07:37:22.105Z,15.10
2017-09-02T07:39:49.595Z,15.00
2017-09-02T07:42:17.097Z,15.20
2017-09-02T07:44:44.591Z,15.20
2017-09-02T07:47:12.100Z,15.50
2017-09-02T07:49:39.592Z,15.50
2017-09-02T07:52:08.595Z,15.50
2017-09-02T07:54:36.847Z,15.50
2017-09-02T07:57:04.343Z,15.50
2017-09-02T07:59:31.827Z,15.50
2017-09-02T08:01:59.313Z,15.80
2017-09-02T08:04:26.803Z,15.90
2017-09-02T08:06:54.293Z,15.90
2017-09-02T08:09:21.822Z,16.00
2017-09-02T08:11:49.313Z,16.20
2017-09-02T08:14:16.823Z,16.20
2017-09-02T08:16:45.090Z,16.20
2017-09-02T08:19:12.595Z,16.10
2017-09-02T08:21:40.100Z,16.20
2017-09-02T08:24:07.587Z,15.90
2017-09-02T08:26:35.074Z,16.10
2017-09-02T08:29:02.577Z,16.20
2017-09-02T08:31:30.081Z,16.00
2017-09-02T08:33:57.599Z,16.00
2017-09-02T08:36:25.184Z,16.10
2017-09-02T08:38:53.460Z,16.50
2017-09-02T08:41:20.951Z,16.40
2017-09-02T08:43:48.459Z,16.50
2017-09-02T08:46:15.943Z,16.50
2017-09-02T08:48:44.222Z,16.60
2017-09-02T08:51:11.707Z,16.60
2017-09-02T08:53:39.211Z,16.80
2017-09-02T08:56:06.704Z,16.80
2017-09-02T08:58:34.191Z,16.80
2017-09-02T09:01:01.673Z,16.70
2017-09-02T09:03:29.200Z,16.70
2017-09-02T09:05:56.676Z,16.80
2017-09-02T09:08:24.163Z,16.80
2017-09-02T09:10:51.652Z,16.90
2017-09-02T09:13:19.131Z,17.00
2017-09-02T09:15:46.624Z,17.00
2017-09-02T09:18:14.123Z,17.00
2017-09-02T09:20:41.625Z,17.10
2017-09-02T09:23:09.114Z,17.20
2017-09-02T09:25:37.375Z,17.30
2017-09-02T09:28:04.855Z,17.30
2017-09-02T09:30:33.109Z,17.30
2017-09-02T09:33:00.608Z,17.30
2017-09-02T09:35:28.102Z,17.30
2017-09-02T09:37:55.584Z,17.50
2017-09-02T09:40:23.072Z,17.60
2017-09-02T09:42:51.339Z,17.90
2017-09-02T09:45:19.585Z,17.90
2017-09-02T09:47:47.078Z,17.90
2017-09-02T09:50:14.562Z,17.90
2017-09-02T09:52:42.069Z,18.00
2017-09-02T09:55:09.540Z,18.00
2017-09-02T09:57:37.848Z,18.00
2017-09-02T10:00:05.326Z,18.00
2017-09-02T10:02:32.832Z,18.10
2017-09-02T10:05:00.305Z,18.20
2017-09-02T10:07:28.579Z,18.20
2017-09-02T10:09:56.073Z,18.20
2017-09-02T10:12:23.560Z,18.10
2017-09-02T10:14:51.044Z,18.20
2017-09-02T10:17:18.527Z,18.30
2017-09-02T10:19:46.039Z,18.20
2017-09-02T10:22:13.633Z,18.50
2017-09-02T10:24:41.885Z,18.70
2017-09-02T10:27:09.362Z,18.60
2017-09-02T10:29:36.853Z,18.70
2017-09-02T10:32:04.325Z,18.80
2017-09-02T10:34:31.835Z,18.70
2017-09-02T10:37:00.084Z,18.60
2017-09-02T10:39:27.614Z,18.60
2017-09-02T10:41:55.096Z,18.50
2017-09-02T10:44:22.619Z,18.40
2017-09-02T10:46:50.094Z,18.20
2017-09-02T10:49:17.570Z,18.20
2017-09-02T10:51:45.057Z,18.10
2017-09-02T10:54:12.548Z,18.00
2017-09-02T10:56:40.050Z,18.10
2017-09-02T10:59:07.531Z,18.00
2017-09-02T11:01:35.031Z,18.00
2017-09-02T11:04:05.659Z,17.70
2017-09-02T11:06:33.162Z,17.90
2017-09-02T11:09:00.661Z,17.90
2017-09-02T11:11:28.163Z,18.10
2017-09-02T11:13:55.660Z,18.30
2017-09-02T11:16:23.164Z,18.40
2017-09-02T11:18:50.638Z,18.30
2017-09-02T11:21:18.141Z,18.50
2017-09-02T11:23:45.622Z,18.60
2017-09-02T11:26:13.930Z,18.70
2017-09-02T11:28:41.410Z,18.80
2017-09-02T11:31:08.898Z,18.80
2017-09-02T11:33:36.393Z,18.90
2017-09-02T11:36:03.877Z,18.90
2017-09-02T11:38:31.373Z,18.70
2017-09-02T11:40:58.851Z,18.70
2017-09-02T11:43:26.335Z,18.80
2017-09-02T11:45:53.822Z,18.80
2017-09-02T11:48:21.322Z,18.80
2017-09-02T11:50:48.808Z,18.80
2017-09-02T11:53:16.311Z,18.80
2017-09-02T11:55:43.795Z,18.90
2017-09-02T11:58:11.287Z,19.00
2017-09-02T12:00:38.777Z,19.00
2017-09-02T12:03:06.273Z,19.20
2017-09-02T12:05:33.763Z,19.40
2017-09-02T12:08:01.292Z,19.50
2017-09-02T12:10:28.778Z,19.60
2017-09-02T12:12:56.262Z,19.70
2017-09-02T12:15:24.535Z,19.50
2017-09-02T12:17:52.025Z,19.50
2017-09-02T12:20:19.524Z,19.50
2017-09-02T12:22:47.011Z,19.50
2017-09-02T12:25:14.608Z,19.50
2017-09-02T12:27:42.110Z,19.10
2017-09-02T12:30:09.626Z,19.30
2017-09-02T12:32:37.108Z,19.30
2017-09-02T12:35:04.618Z,19.30
2017-09-02T12:37:32.106Z,19.30
2017-09-02T12:39:59.599Z,19.20
2017-09-02T12:42:27.771Z,19.20
2017-09-02T12:44:55.294Z,19.20
2017-09-02T12:47:22.783Z,19.00
2017-09-02T12:49:50.272Z,18.90
2017-09-02T12:52:17.778Z,18.80
2017-09-02T12:54:45.289Z,18.60
2017-09-02T12:57:13.550Z,18.10
2017-09-02T12:59:41.039Z,18.10
2017-09-02T13:02:09.290Z,17.80
2017-09-02T13:04:37.562Z,17.80
2017-09-02T13:07:05.033Z,17.70
2017-09-02T13:09:32.517Z,17.70
2017-09-02T13:12:00.004Z,17.60
2017-09-02T13:14:27.511Z,17.50
2017-09-02T13:16:55.175Z,17.50
2017-09-02T13:19:23.431Z,17.40
2017-09-02T13:21:51.038Z,17.40
2017-09-02T13:24:18.534Z,17.40
2017-09-02T13:26:46.020Z,17.50
2017-09-02T13:29:13.518Z,17.50
2017-09-02T13:31:41.013Z,17.50
2017-09-02T13:34:08.506Z,17.60
2017-09-02T13:36:35.998Z,17.60
2017-09-02T13:39:03.503Z,17.70
2017-09-02T13:41:30.992Z,17.80
2017-09-02T13:43:58.493Z,17.80
2017-09-02T13:46:26.008Z,17.80
2017-09-02T13:48:53.519Z,18.00
2017-09-02T13:51:21.043Z,18.10
2017-09-02T13:53:48.575Z,18.20
2017-09-02T13:56:16.057Z,18.10
2017-09-02T13:58:43.548Z,18.30
2017-09-02T14:01:11.036Z,18.50
2017-09-02T14:03:58.318Z,18.50
2017-09-02T14:06:29.081Z,18.60
2017-09-02T14:08:56.572Z,18.60
2017-09-02T14:11:24.057Z,18.60
2017-09-02T14:13:51.569Z,18.40
2017-09-02T14:16:19.084Z,18.50
2017-09-02T14:18:46.581Z,18.60
2017-09-02T14:21:14.082Z,18.60
2017-09-02T14:23:41.605Z,18.80
2017-09-02T14:26:09.109Z,18.90
2017-09-02T14:28:36.626Z,18.80
2017-09-02T14:31:05.596Z,18.90
2017-09-02T14:33:33.086Z,18.90
2017-09-02T14:36:00.607Z,19.20
2017-09-02T14:38:28.089Z,19.40
2017-09-02T14:40:56.348Z,19.50
2017-09-02T14:43:23.833Z,19.40
2017-09-02T14:45:51.336Z,19.40
2017-09-02T14:48:18.833Z,19.40
2017-09-02T14:50:47.086Z,19.40
2017-09-02T14:53:14.566Z,19.40
2017-09-02T14:55:42.059Z,19.30
2017-09-02T14:58:09.542Z,19.20
2017-09-02T15:00:37.073Z,19.00
2017-09-02T15:03:04.580Z,19.10
2017-09-02T15:05:32.069Z,19.10
2017-09-02T15:07:59.579Z,19.10
2017-09-02T15:10:27.066Z,19.10
2017-09-02T15:12:54.566Z,19.10
2017-09-02T15:15:22.061Z,19.10
2017-09-02T15:17:49.567Z,19.10
2017-09-02T15:20:17.055Z,19.10
2017-09-02T15:22:44.568Z,19.00
2017-09-02T15:25:12.092Z,19.10
2017-09-02T15:27:39.578Z,18.90
2017-09-02T15:30:07.068Z,18.90
2017-09-02T15:32:34.580Z,18.80
2017-09-02T15:35:02.076Z,18.70
2017-09-02T15:37:30.013Z,18.80
2017-09-02T15:39:57.503Z,18.80
2017-09-02T15:42:24.993Z,18.70
2017-09-02T15:44:52.508Z,18.60
2017-09-02T15:47:22.991Z,18.50
2017-09-02T15:49:50.511Z,18.50
2017-09-02T15:52:18.004Z,18.60
2017-09-02T15:54:45.494Z,18.60
2017-09-02T15:57:13.000Z,18.40
2017-09-02T15:59:40.494Z,18.20
2017-09-02T16:02:07.972Z,18.40
2017-09-02T16:04:35.485Z,18.40
2017-09-02T16:07:02.970Z,18.50
2017-09-02T16:09:30.487Z,18.40
2017-09-02T16:11:57.981Z,18.40
2017-09-02T16:14:25.487Z,18.30
2017-09-02T16:16:52.971Z,17.90
2017-09-02T16:19:21.921Z,17.30
2017-09-02T16:21:56.057Z,17.20
2017-09-02T16:24:23.559Z,17.20
2017-09-02T16:26:51.040Z,17.20
2017-09-02T16:29:18.535Z,17.30
2017-09-02T16:31:46.710Z,17.10
2017-09-02T16:34:14.203Z,16.80
2017-09-02T16:36:41.849Z,16.90
2017-09-02T16:39:09.340Z,17.00
2017-09-02T16:41:36.837Z,17.00
2017-09-02T16:44:05.599Z,16.70
2017-09-02T16:46:33.089Z,16.70
2017-09-02T16:49:00.598Z,16.50
2017-09-02T16:51:28.075Z,16.30
2017-09-02T16:53:55.617Z,16.30
2017-09-02T16:56:23.094Z,16.50
2017-09-02T16:58:51.354Z,16.50
2017-09-02T17:01:18.865Z,16.50
2017-09-02T17:03:46.356Z,16.30
2017-09-02T17:06:14.762Z,16.40
2017-09-02T17:08:42.238Z,16.40
2017-09-02T17:11:09.746Z,16.30
2017-09-02T17:13:37.226Z,16.20
2017-09-02T17:16:04.720Z,16.10
2017-09-02T17:18:32.211Z,16.10
2017-09-02T17:20:59.711Z,16.10
2017-09-02T17:23:27.207Z,16.00
2017-09-02T17:25:54.704Z,15.80
2017-09-02T17:28:22.185Z,15.90
2017-09-02T17:30:49.697Z,15.90
2017-09-02T17:33:17.185Z,15.80
2017-09-02T17:35:44.684Z,15.80
2017-09-02T17:38:12.173Z,15.90
2017-09-02T17:40:39.692Z,15.80
2017-09-02T17:43:07.190Z,15.70
2017-09-02T17:45:34.705Z,15.70
2017-09-02T17:48:02.197Z,15.80
2017-09-02T17:50:29.688Z,15.60
2017-09-02T17:52:57.208Z,15.60
2017-09-02T17:55:24.715Z,15.30
2017-09-02T17:57:52.206Z,15.40
2017-09-02T18:00:19.698Z,15.40
2017-09-02T18:02:47.209Z,15.50
2017-09-02T18:05:14.702Z,15.40
2017-09-02T18:07:42.192Z,15.40
2017-09-02T18:10:09.688Z,15.30
2017-09-02T18:12:37.966Z,15.50
2017-09-02T18:15:06.244Z,15.40
2017-09-02T18:17:34.411Z,15.40
2017-09-02T18:20:01.914Z,15.30
2017-09-02T18:22:29.400Z,15.30
2017-09-02T18:24:56.891Z,15.20
2017-09-02T18:27:24.374Z,15.00
2017-09-02T18:29:51.867Z,14.90
2017-09-02T18:32:19.354Z,15.20
2017-09-02T18:34:47.618Z,15.20
2017-09-02T18:37:15.107Z,15.20
2017-09-02T18:39:42.596Z,15.30
2017-09-02T18:42:10.083Z,15.20
2017-09-02T18:44:38.325Z,15.30
2017-09-02T18:47:05.818Z,15.30
2017-09-02T18:49:33.312Z,15.20
2017-09-02T18:52:00.832Z,15.30
2017-09-02T18:54:28.335Z,15.20
2017-09-02T18:56:55.821Z,15.20
2017-09-02T18:59:23.356Z,15.10
2017-09-02T19:01:50.842Z,14.90
2017-09-02T19:04:18.373Z,14.90
2017-09-02T19:06:45.923Z,15.00
2017-09-02T19:09:13.402Z,14.90
2017-09-02T19:11:40.907Z,15.00
2017-09-02T19:14:08.403Z,15.00
2017-09-02T19:16:35.891Z,15.10
2017-09-02T19:19:03.374Z,15.10
2017-09-02T19:21:30.864Z,15.10
2017-09-02T19:23:58.351Z,15.00
2017-09-02T19:26:26.079Z,15.10
2017-09-02T19:28:53.584Z,15.10
2017-09-02T19:31:22.000Z,15.10
2017-09-02T19:33:49.474Z,14.90
2017-09-02T19:36:17.735Z,14.80
2017-09-02T19:38:45.226Z,14.80
2017-09-02T19:41:12.726Z,14.80
2017-09-02T19:43:40.226Z,14.70
2017-09-02T19:46:08.516Z,14.60
2017-09-02T19:48:36.001Z,14.60
2017-09-02T19:51:03.508Z,14.70
2017-09-02T19:53:31.925Z,14.60
2017-09-02T19:55:59.399Z,14.70
2017-09-02T19:58:26.897Z,14.50
2017-09-02T20:00:54.399Z,14.60
2017-09-02T20:03:21.901Z,14.50
2017-09-02T20:05:49.387Z,14.50
2017-09-02T20:08:16.906Z,14.50
2017-09-02T20:10:44.405Z,14.30
2017-09-02T20:13:11.909Z,14.40
2017-09-02T20:15:39.393Z,14.50
2017-09-02T20:18:06.884Z,14.30
2017-09-02T20:20:34.375Z,14.30
2017-09-02T20:23:01.874Z,14.20
2017-09-02T20:25:29.462Z,14.20
2017-09-02T20:27:56.993Z,14.20
2017-09-02T20:30:24.482Z,14.20
2017-09-02T20:32:52.750Z,14.50
2017-09-02T20:35:21.006Z,14.50
2017-09-02T20:37:48.508Z,14.50
2017-09-02T20:40:16.000Z,14.50
2017-09-02T20:42:43.489Z,14.50
2017-09-02T20:45:10.990Z,14.50
2017-09-02T20:47:38.470Z,14.30
2017-09-02T20:50:05.984Z,14.30
2017-09-02T20:52:33.475Z,14.40
2017-09-02T20:55:00.972Z,14.40
2017-09-02T20:57:28.474Z,14.10
2017-09-02T20:59:55.983Z,14.10
2017-09-02T21:02:23.483Z,14.00
2017-09-02T21:04:50.972Z,14.20
2017-09-02T21:07:18.467Z,14.20
2017-09-02T21:09:45.947Z,14.40
2017-09-02T21:12:14.222Z,14.30
2017-09-02T21:14:41.724Z,14.20
2017-09-02T21:17:09.221Z,14.20
2017-09-02T21:19:36.714Z,14.00
2017-09-02T21:22:04.222Z,14.00
2017-09-02T21:24:31.711Z,13.90
2017-09-02T21:26:59.216Z,14.20
2017-09-02T21:29:26.700Z,14.30
2017-09-02T21:31:54.217Z,14.40
2017-09-02T21:34:21.724Z,14.30
2017-09-02T21:36:49.265Z,14.30
2017-09-02T21:39:16.754Z,14.20
2017-09-02T21:41:44.261Z,14.00
2017-09-02T21:44:11.760Z,13.70
2017-09-02T21:46:39.255Z,13.80
2017-09-02T21:49:06.743Z,13.90
2017-09-02T21:51:34.238Z,14.10
2017-09-02T21:54:01.814Z,14.10
2017-09-02T21:56:30.068Z,14.10
2017-09-02T21:58:57.565Z,14.10
2017-09-02T22:01:25.097Z,14.20
2017-09-02T22:03:52.595Z,14.20
2017-09-02T22:06:20.086Z,14.00
2017-09-02T22:08:47.587Z,13.90
2017-09-02T22:11:15.848Z,14.00
2017-09-02T22:13:43.354Z,14.00
2017-09-02T22:16:10.840Z,14.10
2017-09-02T22:18:38.330Z,13.80
2017-09-02T22:21:05.827Z,13.90
2017-09-02T22:23:33.318Z,14.00
2017-09-02T22:26:00.837Z,14.10
2017-09-02T22:28:28.319Z,14.10
2017-09-02T22:30:55.811Z,14.10
2017-09-02T22:33:23.310Z,13.90
2017-09-02T22:35:50.802Z,14.00
2017-09-02T22:38:18.285Z,14.00
2017-09-02T22:40:47.486Z,14.20
2017-09-02T22:43:14.971Z,14.10
2017-09-02T22:45:42.478Z,14.20
2017-09-02T22:48:09.968Z,14.20
2017-09-02T22:50:37.472Z,14.20
2017-09-02T22:53:04.972Z,14.30
2017-09-02T22:55:32.495Z,14.30
2017-09-02T22:57:59.975Z,14.20
2017-09-02T23:00:28.397Z,14.20
2017-09-02T23:02:55.893Z,14.20
2017-09-02T23:05:23.407Z,14.10
2017-09-02T23:07:50.891Z,14.10
2017-09-02T23:10:18.374Z,14.10
2017-09-02T23:12:45.872Z,14.20
2017-09-02T23:15:14.191Z,14.20
2017-09-02T23:17:41.687Z,14.20
2017-09-02T23:20:09.183Z,14.20
2017-09-02T23:22:36.688Z,14.20
2017-09-02T23:25:04.183Z,14.20
2017-09-02T23:27:32.451Z,14.20
2017-09-02T23:29:59.962Z,14.20
2017-09-02T23:32:27.465Z,14.30
2017-09-02T23:34:55.724Z,14.30
2017-09-02T23:37:23.240Z,14.30
2017-09-02T23:39:50.732Z,14.20
2017-09-02T23:42:18.242Z,14.10
2017-09-02T23:44:45.752Z,14.00
2017-09-02T23:47:13.238Z,14.10
2017-09-02T23:49:41.507Z,14.30
2017-09-02T23:52:09.002Z,14.20
2017-09-02T23:54:36.506Z,14.10
2017-09-02T23:57:03.996Z,13.90
2017-09-02T23:59:32.255Z,14.10
